Time;durP1;ratioP1;P1;durP2;ratioP2;P2;SDS_P1;SDS_P2;PMS_P1;PMS_P2;Temp;Humidity;BMP_temperature;BMP_pressure;BME280_temperature;BME280_humidity;BME280_pressure;Samples;Min_cycle;Max_cycle;Signal;HPM_P1;HPM_P2
2022/06/23 00:00:36;;;;;;;37.40;19.30;;;;;;;12.40;100.00;99780.11;104796;1274;73740;-69
2022/06/23 00:03:26;;;;;;;33.50;18.80;;;;;;;12.37;100.00;99779.27;104896;1274;68830;-69
2022/06/23 00:06:59;;;;;;;40.40;19.90;;;;;;;12.36;100.00;99780.80;104811;1274;73690;-70
2022/06/23 00:09:51;;;;;;;41.50;19.80;;;;;;;12.34;100.00;99786.92;104933;1274;59738;-69
2022/06/23 00:12:43;;;;;;;37.00;18.70;;;;;;;12.31;100.00;99784.50;104932;1274;61580;-70
2022/06/23 00:15:43;;;;;;;32.10;17.90;;;;;;;12.28;100.00;99780.83;104705;1274;72229;-69
2022/06/23 00:18:36;;;;;;;34.80;18.50;;;;;;;12.25;100.00;99783.77;104785;1273;68577;-70
2022/06/23 00:21:33;;;;;;;32.90;17.60;;;;;;;12.22;100.00;99783.48;105087;1273;73242;-72
2022/06/23 00:24:25;;;;;;;30.60;16.40;;;;;;;12.21;100.00;99782.54;104736;1274;59774;-71
2022/06/23 00:27:20;;;;;;;33.00;17.50;;;;;;;12.20;100.00;99779.59;104790;1273;59593;-65
2022/06/23 00:30:38;;;;;;;29.90;16.30;;;;;;;12.18;100.00;99780.48;104850;1274;74408;-69
2022/06/23 00:33:36;;;;;;;30.50;16.30;;;;;;;12.17;100.00;99785.73;104765;1273;68891;-69
2022/06/23 00:37:17;;;;;;;37.70;17.60;;;;;;;12.15;100.00;99787.11;104746;1274;73001;-68
2022/06/23 00:40:12;;;;;;;30.90;16.80;;;;;;;12.13;100.00;99791.57;104951;1280;59644;-68
2022/06/23 00:43:04;;;;;;;32.30;16.60;;;;;;;12.12;100.00;99791.34;104263;1279;62421;-69
2022/06/23 00:46:40;;;;;;;31.80;17.40;;;;;;;12.10;100.00;99787.20;104348;1281;73473;-68
2022/06/23 00:49:54;;;;;;;30.20;16.80;;;;;;;12.08;100.00;99784.17;103960;1285;66537;-69
2022/06/23 00:52:52;;;;;;;29.50;17.00;;;;;;;12.07;100.00;99782.51;104076;1285;73482;-63
2022/06/23 00:56:15;;;;;;;27.60;16.00;;;;;;;12.05;100.00;99783.17;103951;1285;59833;-66
2022/06/23 00:59:11;;;;;;;33.00;16.10;;;;;;;12.02;100.00;99780.09;103819;1285;62131;-70
2022/06/23 01:02:10;;;;;;;26.10;14.70;;;;;;;11.99;100.00;99781.06;103926;1285;73744;-71
2022/06/23 01:05:10;;;;;;;28.10;16.40;;;;;;;11.96;100.00;99783.16;104126;1285;68412;-71
2022/06/23 01:08:11;;;;;;;28.50;16.30;;;;;;;11.93;100.00;99781.55;103850;1285;72981;-69
2022/06/23 01:11:14;;;;;;;28.70;15.50;;;;;;;11.91;100.00;99782.42;103821;1285;59872;-73
2022/06/23 01:14:34;;;;;;;26.10;15.50;;;;;;;11.89;100.00;99787.42;104032;1280;59616;-71
2022/06/23 01:17:52;;;;;;;30.70;15.70;;;;;;;11.88;100.00;99788.41;104435;1279;75203;-72
2022/06/23 01:21:01;;;;;;;26.50;15.60;;;;;;;11.87;100.00;99793.13;104716;1274;69129;-71
2022/06/23 01:24:23;;;;;;;26.00;13.80;;;;;;;11.85;100.00;99795.98;104813;1273;73591;-72
2022/06/23 01:27:59;;;;;;;25.70;13.70;;;;;;;11.80;100.00;99793.02;105121;1273;59679;-68
2022/06/23 01:31:14;;;;;;;24.70;13.40;;;;;;;11.74;100.00;99797.29;105239;1274;60546;-70
2022/06/23 01:34:23;;;;;;;25.10;13.80;;;;;;;11.70;100.00;99799.73;105078;1273;74326;-72
2022/06/23 01:37:25;;;;;;;21.50;12.70;;;;;;;11.68;100.00;99805.41;104874;1274;69333;-70
2022/06/23 01:40:35;;;;;;;21.30;12.20;;;;;;;11.65;100.00;99808.52;104974;1274;72870;-70
2022/06/23 01:43:52;;;;;;;21.20;12.80;;;;;;;11.60;100.00;99807.48;104784;1274;59752;-69
2022/06/23 01:46:46;;;;;;;20.90;12.20;;;;;;;11.52;100.00;99809.10;105203;1274;60291;-66
2022/06/23 01:49:43;;;;;;;22.00;12.30;;;;;;;11.48;100.00;99805.58;104852;1273;72444;-68
2022/06/23 01:52:31;;;;;;;22.40;13.10;;;;;;;11.43;100.00;99805.77;104989;1274;68585;-65
2022/06/23 01:55:27;;;;;;;23.90;12.80;;;;;;;11.39;100.00;99810.14;104883;1274;73559;-66
2022/06/23 01:58:21;;;;;;;21.80;12.20;;;;;;;11.38;100.00;99810.27;104767;1274;59860;-65
2022/06/23 02:01:18;;;;;;;23.60;12.30;;;;;;;11.36;100.00;99811.55;104814;1274;60303;-71
2022/06/23 02:04:36;;;;;;;24.80;12.90;;;;;;;11.30;100.00;99810.09;104796;1274;73591;-71
2022/06/23 02:08:02;;;;;;;24.10;12.40;;;;;;;11.24;100.00;99816.73;104825;1273;66765;-68
2022/06/23 02:10:58;;;;;;;23.50;11.50;;;;;;;11.23;100.00;99818.31;105069;1274;72038;-69
2022/06/23 02:14:06;;;;;;;20.10;12.20;;;;;;;11.22;100.00;99816.45;104864;1274;61579;-66
2022/06/23 02:18:11;;;;;;;20.60;12.20;;;;;;;11.20;100.00;99819.75;104813;1274;60300;-66
2022/06/23 02:21:20;;;;;;;22.50;12.40;;;;;;;11.18;100.00;99815.90;103955;1287;73654;-67
2022/06/23 02:24:48;;;;;;;21.50;12.30;;;;;;;11.15;100.00;99816.35;104032;1287;68456;-68
2022/06/23 02:27:48;;;;;;;23.00;12.40;;;;;;;11.11;100.00;99820.52;103639;1287;72499;-71
2022/06/23 02:30:47;;;;;;;21.40;12.40;;;;;;;11.08;100.00;99820.56;103743;1287;59797;-70
2022/06/23 02:33:54;;;;;;;23.20;11.70;;;;;;;11.06;100.00;99827.32;103727;1287;60670;-68
2022/06/23 02:36:42;;;;;;;21.10;12.70;;;;;;;11.04;100.00;99826.92;103661;1287;73428;-72
2022/06/23 02:39:52;;;;;;;21.20;11.90;;;;;;;11.04;100.00;99828.74;103776;1287;68481;-73
2022/06/23 02:42:40;;;;;;;20.50;12.10;;;;;;;11.04;100.00;99832.81;103971;1287;73597;-69
2022/06/23 02:46:09;;;;;;;19.30;11.80;;;;;;;11.05;100.00;99835.25;103656;1287;60116;-70
2022/06/23 02:49:32;;;;;;;20.60;12.20;;;;;;;11.04;100.00;99840.63;103749;1287;60917;-70
2022/06/23 02:52:59;;;;;;;19.40;11.00;;;;;;;11.03;100.00;99841.07;104108;1279;73915;-74
2022/06/23 02:56:16;;;;;;;20.90;11.50;;;;;;;11.03;100.00;99843.70;104617;1274;69670;-73
2022/06/23 02:59:35;;;;;;;21.10;11.10;;;;;;;11.03;100.00;99843.53;104936;1272;73344;-70
2022/06/23 03:02:47;;;;;;;21.80;11.70;;;;;;;11.06;100.00;99845.45;105153;1274;59789;-73
2022/06/23 03:05:49;;;;;;;20.00;11.60;;;;;;;11.06;100.00;99849.87;105064;1274;59643;-72
2022/06/23 03:08:45;;;;;;;21.30;11.60;;;;;;;11.08;100.00;99849.88;105061;1273;73627;-70
2022/06/23 03:12:11;;;;;;;20.30;10.40;;;;;;;11.12;100.00;99851.35;104919;1272;67009;-71
2022/06/23 03:15:08;;;;;;;19.40;11.90;;;;;;;11.17;100.00;99857.30;104522;1279;74165;-71
2022/06/23 03:18:06;;;;;;;20.70;10.30;;;;;;;11.23;100.00;99858.27;104517;1279;60009;-71
2022/06/23 03:21:25;;;;;;;18.70;10.10;;;;;;;11.29;100.00;99854.92;104528;1279;60937;-69
2022/06/23 03:24:30;;;;;;;18.30;10.00;;;;;;;11.34;100.00;99858.55;104290;1280;72524;-70
2022/06/23 03:27:43;;;;;;;17.90;9.60;;;;;;;11.40;100.00;99857.19;104414;1279;67512;-69
2022/06/23 03:30:40;;;;;;;18.50;10.20;;;;;;;11.45;100.00;99859.83;104436;1280;72329;-69
2022/06/23 03:33:35;;;;;;;17.10;9.50;;;;;;;11.50;100.00;99856.92;104443;1279;60411;-70
2022/06/23 03:36:43;;;;;;;18.30;9.20;;;;;;;11.54;100.00;99856.35;104351;1279;60711;-71
2022/06/23 03:43:34;;;;;;;16.10;8.60;;;;;;;11.69;100.00;99852.57;104984;1279;69062;-68
2022/06/23 03:46:39;;;;;;;17.60;8.00;;;;;;;11.80;100.00;99851.86;104688;1279;73473;-68
2022/06/23 03:49:49;;;;;;;19.30;8.20;;;;;;;11.88;100.00;99856.06;104891;1273;59766;-70
2022/06/23 03:53:18;;;;;;;16.30;7.50;;;;;;;11.97;100.00;99861.39;105078;1274;60611;-70
2022/06/23 03:56:20;;;;;;;13.30;7.30;;;;;;;12.06;100.00;99861.88;104539;1279;73200;-70
2022/06/23 03:59:20;;;;;;;12.30;7.00;;;;;;;12.13;100.00;99864.99;104330;1279;68860;-69
2022/06/23 04:02:19;;;;;;;14.60;7.10;;;;;;;12.20;100.00;99867.44;104177;1279;73503;-71
2022/06/23 04:05:14;;;;;;;15.70;7.20;;;;;;;12.28;100.00;99870.09;104238;1280;60700;-73
2022/06/23 04:08:04;;;;;;;11.30;6.20;;;;;;;12.37;100.00;99872.55;104450;1279;62087;-70
2022/06/23 04:10:54;;;;;;;11.20;6.40;;;;;;;12.46;99.96;99873.70;104274;1280;74841;-76
2022/06/23 04:13:42;;;;;;;12.80;6.30;;;;;;;12.57;99.08;99876.80;104392;1279;69460;-74
2022/06/23 04:16:32;;;;;;;10.00;5.30;;;;;;;12.72;98.36;99880.79;104321;1280;73053;-77
2022/06/23 04:19:28;;;;;;;11.90;5.40;;;;;;;12.88;97.54;99883.67;104149;1280;59769;-71
2022/06/23 04:22:32;;;;;;;12.10;5.40;;;;;;;13.07;95.96;99882.13;104257;1281;60292;-76
2022/06/23 04:25:37;;;;;;;9.90;5.10;;;;;;;13.34;95.16;99886.27;104525;1280;73792;-73
2022/06/23 04:28:35;;;;;;;8.80;4.40;;;;;;;13.66;93.13;99879.43;104401;1279;65483;-73
2022/06/23 04:31:32;;;;;;;11.50;4.90;;;;;;;14.00;91.80;99885.14;104317;1278;72902;-71
2022/06/23 04:34:29;;;;;;;10.70;4.70;;;;;;;14.40;89.89;99886.57;105897;1273;59775;-72
2022/06/23 04:37:59;;;;;;;11.80;4.50;;;;;;;14.84;88.29;99888.14;107068;1273;60338;-72
2022/06/23 04:41:00;;;;;;;8.50;4.10;;;;;;;15.48;85.77;99889.85;104790;1273;74700;-73
2022/06/23 04:44:13;;;;;;;9.80;4.30;;;;;;;16.08;82.95;99884.09;105100;1273;68342;-76
2022/06/23 04:47:07;;;;;;;9.30;4.00;;;;;;;16.84;79.64;99884.20;104917;1273;74011;-75
2022/06/23 04:50:09;;;;;;;8.80;3.90;;;;;;;17.60;76.63;99886.48;104806;1274;59667;-74
2022/06/23 04:52:59;;;;;;;9.10;4.00;;;;;;;18.41;74.17;99886.22;104749;1273;59662;-74
2022/06/23 04:56:01;;;;;;;10.70;3.40;;;;;;;19.25;71.63;99888.16;104714;1273;73271;-75
2022/06/23 04:59:07;;;;;;;10.40;3.60;;;;;;;20.14;67.43;99887.53;105065;1273;68650;-71
2022/06/23 05:01:58;;;;;;;9.10;3.80;;;;;;;20.97;64.00;99888.78;105070;1273;71632;-73
2022/06/23 05:04:54;;;;;;;9.30;3.30;;;;;;;21.80;61.05;99892.70;105066;1273;60040;-76
2022/06/23 05:07:51;;;;;;;9.50;3.30;;;;;;;22.47;55.53;99887.24;105210;1273;59615;-73
2022/06/23 05:11:06;;;;;;;9.10;3.00;;;;;;;23.16;54.51;99888.31;104662;1273;73402;-71
2022/06/23 05:14:01;;;;;;;8.80;3.00;;;;;;;23.90;50.67;99889.27;104952;1273;68902;-75
2022/06/23 05:16:54;;;;;;;7.30;2.50;;;;;;;24.64;48.45;99889.59;104873;1273;74576;-75
2022/06/23 05:19:43;;;;;;;6.60;2.50;;;;;;;25.34;45.99;99893.06;104667;1273;341413;-73
2022/06/23 05:22:46;;;;;;;7.80;2.00;;;;;;;26.25;43.52;99892.82;104802;1274;60290;-73
2022/06/23 05:25:48;;;;;;;7.90;2.20;;;;;;;27.13;41.53;99885.59;104777;1273;72078;-70
2022/06/23 05:28:39;;;;;;;7.00;2.00;;;;;;;27.79;37.50;99885.97;104782;1273;69656;-76
2022/06/23 05:31:37;;;;;;;6.40;1.80;;;;;;;28.51;37.03;99887.67;105363;1273;72967;-76
2022/06/23 05:34:35;;;;;;;7.70;2.10;;;;;;;29.44;35.40;99882.69;104987;1273;59730;-73
2022/06/23 05:37:50;;;;;;;7.30;2.20;;;;;;;30.33;33.64;99884.55;106937;1273;59744;-71
2022/06/23 05:40:49;;;;;;;7.10;1.80;;;;;;;31.11;31.70;99882.05;105058;1274;71799;-70
2022/06/23 05:43:40;;;;;;;6.60;1.60;;;;;;;31.76;30.69;99883.66;105219;1273;67333;-70
2022/06/23 05:46:31;;;;;;;21.10;16.30;;;;;;;32.27;29.50;99888.72;105282;1273;73997;-66
2022/06/23 05:49:58;;;;;;;7.80;2.60;;;;;;;32.65;28.43;99888.48;105077;1273;59872;-72
2022/06/23 05:53:06;;;;;;;8.70;3.40;;;;;;;33.07;27.43;99883.21;104916;1273;59868;-71
2022/06/23 05:56:00;;;;;;;6.40;2.60;;;;;;;33.48;27.29;99879.79;105205;1274;72100;-70
2022/06/23 05:59:12;;;;;;;6.80;1.70;;;;;;;33.93;26.44;99881.75;104990;1273;68471;-71
2022/06/23 06:02:14;;;;;;;7.40;2.30;;;;;;;34.32;25.99;99880.27;104748;1273;74626;-70
2022/06/23 06:05:03;;;;;;;6.70;1.70;;;;;;;34.50;25.17;99882.46;105037;1274;59765;-69
2022/06/23 06:07:50;;;;;;;5.90;1.30;;;;;;;34.65;24.90;99879.18;104930;1273;59735;-71
2022/06/23 06:10:38;;;;;;;7.90;1.60;;;;;;;34.76;24.37;99877.30;105051;1274;72569;-71
2022/06/23 06:13:36;;;;;;;7.30;2.00;;;;;;;35.16;23.99;99877.94;105053;1274;68410;-71
2022/06/23 06:16:24;;;;;;;7.50;2.80;;;;;;;35.49;23.54;99878.09;104995;1273;72798;-71
2022/06/23 06:19:19;;;;;;;7.50;2.00;;;;;;;35.92;22.77;99878.58;104894;1273;59737;-70
2022/06/23 06:22:31;;;;;;;10.50;5.00;;;;;;;36.24;22.02;99884.70;104868;1274;61340;-72
2022/06/23 06:25:30;;;;;;;7.10;1.90;;;;;;;36.74;21.82;99882.42;105067;1273;73601;-70
2022/06/23 06:28:23;;;;;;;6.10;1.70;;;;;;;36.99;21.14;99888.79;105035;1274;68649;-70
2022/06/23 06:31:44;;;;;;;7.40;1.60;;;;;;;37.19;20.36;99890.35;104932;1273;72859;-72
2022/06/23 06:34:38;;;;;;;8.00;2.80;;;;;;;37.30;19.81;99893.48;104949;1274;59693;-73
2022/06/23 06:37:35;;;;;;;7.70;1.60;;;;;;;37.21;20.09;99897.38;104754;1275;60592;-71
2022/06/23 06:40:24;;;;;;;6.00;1.50;;;;;;;37.24;19.97;99903.48;105018;1273;73326;-72
2022/06/23 06:43:21;;;;;;;6.50;1.30;;;;;;;37.30;19.63;99904.17;104948;1273;66865;-71
2022/06/23 06:46:09;;;;;;;8.30;1.60;;;;;;;37.08;19.88;99906.41;105306;1273;72829;-72
2022/06/23 06:48:59;;;;;;;6.50;1.40;;;;;;;37.00;19.75;99906.70;104727;1274;59728;-73
2022/06/23 06:51:49;;;;;;;7.00;1.60;;;;;;;36.64;19.82;99905.83;105052;1273;60378;-71
2022/06/23 06:54:52;;;;;;;7.10;1.40;;;;;;;36.20;20.27;99904.02;104957;1273;73148;-73
2022/06/23 06:57:54;;;;;;;8.60;1.50;;;;;;;36.07;20.48;99901.06;105224;1273;67355;-72
2022/06/23 07:01:13;;;;;;;6.50;1.80;;;;;;;36.08;20.47;99905.82;104998;1273;71277;-73
2022/06/23 07:04:01;;;;;;;6.40;1.50;;;;;;;36.26;19.94;99903.40;105329;1274;59777;-70
2022/06/23 07:07:01;;;;;;;6.20;1.70;;;;;;;36.61;19.90;99901.55;104854;1273;60495;-71
2022/06/23 07:09:57;;;;;;;7.10;1.60;;;;;;;37.13;19.16;99901.05;105025;1274;74643;-72
2022/06/23 07:12:58;;;;;;;7.00;1.60;;;;;;;37.57;18.72;99897.48;105073;1274;67878;-71
2022/06/23 07:15:56;;;;;;;6.80;2.40;;;;;;;38.16;18.54;99896.48;105159;1273;74589;-73
2022/06/23 07:19:11;;;;;;;5.30;1.20;;;;;;;38.74;17.74;99893.34;105279;1273;59762;-74
2022/06/23 07:22:30;;;;;;;8.20;1.40;;;;;;;38.88;17.33;99894.52;105231;1273;60511;-77
2022/06/23 07:25:47;;;;;;;7.00;1.40;;;;;;;39.09;17.13;99898.73;105114;1274;72095;-77
2022/06/23 07:28:43;;;;;;;11.60;2.40;;;;;;;39.04;18.44;99908.45;105208;1273;68167;-75
2022/06/23 07:31:47;;;;;;;7.00;2.70;;;;;;;38.77;19.35;99913.63;104911;1273;72688;-77
2022/06/23 07:34:43;;;;;;;8.10;2.50;;;;;;;38.57;20.02;99912.39;105091;1273;60162;-78
2022/06/23 07:38:22;;;;;;;10.00;4.00;;;;;;;38.65;19.83;99910.70;105134;1273;59807;-76
2022/06/23 07:41:36;;;;;;;10.00;2.90;;;;;;;38.52;20.06;99905.17;104250;1282;74067;-78
2022/06/23 07:44:40;;;;;;;8.80;2.20;;;;;;;38.30;20.34;99907.54;104571;1282;67873;-75
2022/06/23 07:47:27;;;;;;;7.80;2.80;;;;;;;38.07;20.44;99907.25;104431;1282;71700;-75
2022/06/23 07:50:16;;;;;;;9.10;2.00;;;;;;;37.97;21.06;99910.66;104347;1281;59786;-73
2022/06/23 07:53:10;;;;;;;11.00;2.20;;;;;;;37.90;20.77;99910.95;104359;1282;62061;-76
2022/06/23 07:56:00;;;;;;;8.60;2.40;;;;;;;37.85;20.99;99912.65;104924;1282;74740;-72
2022/06/23 07:58:58;;;;;;;8.40;2.40;;;;;;;37.80;20.91;99910.74;106304;1282;68119;-73
2022/06/23 08:02:09;;;;;;;10.90;2.40;;;;;;;37.27;21.12;99913.93;106171;1282;71672;-74
2022/06/23 08:05:34;;;;;;;9.50;2.40;;;;;;;37.06;21.88;99915.48;106475;1282;59612;-74
2022/06/23 08:08:29;;;;;;;7.40;2.10;;;;;;;36.76;22.07;99918.20;105124;1282;60956;-74
2022/06/23 08:18:50;;;;;;;7.80;2.10;;;;;;;36.85;22.30;99915.44;106211;1273;71315;-73
2022/06/23 08:21:47;;;;;;;7.20;2.30;;;;;;;36.93;22.48;99920.27;105200;1273;59599;-74
2022/06/23 08:24:36;;;;;;;7.70;2.30;;;;;;;37.00;22.53;99922.33;105271;1273;60803;-74
2022/06/23 08:27:28;;;;;;;8.70;2.40;;;;;;;36.94;22.31;99919.20;104850;1273;74872;-70
2022/06/23 08:30:17;;;;;;;7.80;2.00;;;;;;;36.78;22.04;99921.67;104824;1274;69940;-73
2022/06/23 08:33:06;;;;;;;6.90;2.00;;;;;;;36.72;22.31;99920.54;104664;1274;70788;-69
2022/06/23 08:35:58;;;;;;;7.20;2.00;;;;;;;36.34;22.93;99917.66;105132;1273;59887;-72
2022/06/23 08:38:54;;;;;;;7.80;2.20;;;;;;;36.11;22.99;99915.02;104985;1273;62037;-75
2022/06/23 08:42:05;;;;;;;8.10;2.80;;;;;;;36.19;23.15;99915.27;104941;1273;73283;-72
2022/06/23 08:45:27;;;;;;;6.90;1.90;;;;;;;36.39;22.91;99917.95;105161;1273;68708;-74
2022/06/23 08:48:45;;;;;;;7.00;2.20;;;;;;;36.58;22.73;99922.69;105370;1273;73522;-70
2022/06/23 08:51:46;;;;;;;6.70;1.90;;;;;;;36.65;22.48;99924.77;105042;1273;59788;-74
2022/06/23 08:54:59;;;;;;;6.40;1.70;;;;;;;36.62;22.72;99923.55;104839;1273;59697;-75
2022/06/23 08:58:17;;;;;;;7.90;1.90;;;;;;;36.51;22.57;99925.07;105046;1273;73436;-73
2022/06/23 09:01:16;;;;;;;6.50;2.00;;;;;;;36.53;22.67;99927.52;104942;1274;66784;-75
2022/06/23 09:04:46;;;;;;;8.60;2.00;;;;;;;36.35;22.40;99921.03;104926;1274;73234;-74
2022/06/23 09:07:53;;;;;;;9.20;2.50;;;;;;;35.95;23.20;99923.95;104923;1273;59707;-74
2022/06/23 09:11:04;;;;;;;6.40;2.10;;;;;;;35.82;23.63;99923.57;105312;1273;59735;-74
2022/06/23 09:14:08;;;;;;;6.60;2.00;;;;;;;35.81;23.39;99933.11;105121;1273;73389;-74
2022/06/23 09:17:19;;;;;;;9.00;1.80;;;;;;;35.62;23.32;99932.08;104997;1273;67410;-75
2022/06/23 09:20:42;;;;;;;8.20;2.00;;;;;;;35.56;23.52;99928.81;105188;1274;72593;-73
2022/06/23 09:24:14;;;;;;;7.10;1.90;;;;;;;35.74;23.35;99929.39;104822;1273;59704;-75
2022/06/23 09:27:43;;;;;;;6.90;1.90;;;;;;;35.75;23.43;99931.24;104872;1273;61033;-73
2022/06/23 09:31:19;;;;;;;8.00;2.40;;;;;;;35.62;23.66;99931.08;104899;1279;73232;-78
2022/06/23 09:34:51;;;;;;;8.60;2.30;;;;;;;35.40;23.69;99936.30;104484;1279;68762;-73
2022/06/23 09:37:58;;;;;;;8.50;2.20;;;;;;;35.35;23.85;99937.67;104439;1279;73540;-76
2022/06/23 09:41:20;;;;;;;8.30;2.60;;;;;;;35.29;23.85;99942.30;104554;1279;59813;-74
2022/06/23 09:44:47;;;;;;;8.40;2.50;;;;;;;35.00;23.64;99947.05;104698;1279;60509;-76
2022/06/23 09:48:00;;;;;;;8.30;3.00;;;;;;;34.74;24.02;99949.38;104605;1279;73520;-75
2022/06/23 09:51:40;;;;;;;7.60;2.40;;;;;;;34.79;24.63;99952.61;104484;1279;67099;-73
2022/06/23 09:55:14;;;;;;;7.10;2.40;;;;;;;34.79;24.11;99949.75;104151;1285;74618;-75
2022/06/23 09:58:48;;;;;;;8.60;2.30;;;;;;;34.79;24.62;99952.84;104066;1284;59718;-73
2022/06/23 10:02:19;;;;;;;8.40;2.30;;;;;;;34.71;24.84;99955.40;104302;1285;60553;-74
2022/06/23 10:05:45;;;;;;;7.70;2.70;;;;;;;34.71;24.95;99949.66;104328;1282;73306;-73
2022/06/23 10:09:21;;;;;;;8.30;2.70;;;;;;;34.84;25.25;99943.98;104558;1281;67684;-72
2022/06/23 10:12:42;;;;;;;9.30;3.00;;;;;;;34.79;24.98;99946.70;103828;1285;73609;-74
2022/06/23 10:16:21;;;;;;;8.00;3.00;;;;;;;34.85;25.09;99944.27;104022;1285;59710;-72
2022/06/23 10:19:55;;;;;;;9.10;2.60;;;;;;;35.03;24.71;99942.16;103867;1285;60709;-73
2022/06/23 10:23:02;;;;;;;8.30;2.30;;;;;;;35.38;24.54;99946.05;103835;1285;73222;-72
2022/06/23 10:26:15;;;;;;;9.90;2.90;;;;;;;35.43;24.02;99941.98;103860;1285;69508;-77
2022/06/23 10:30:00;;;;;;;7.70;2.80;;;;;;;35.52;24.36;99942.85;103918;1285;71748;-74
2022/06/23 10:33:42;;;;;;;8.90;2.60;;;;;;;35.63;23.93;99935.56;104285;1279;59863;-72
2022/06/23 10:37:17;;;;;;;7.70;2.30;;;;;;;35.97;23.89;99939.77;104486;1281;60317;-72
2022/06/23 10:40:38;;;;;;;8.30;2.80;;;;;;;36.08;23.97;99940.71;104629;1279;73068;-72
2022/06/23 10:43:47;;;;;;;9.30;3.20;;;;;;;36.08;23.94;99941.48;104363;1282;68742;-70
2022/06/23 10:46:49;;;;;;;8.80;3.20;;;;;;;35.97;23.71;99938.09;104377;1282;73569;-74
2022/06/23 10:49:55;;;;;;;9.10;3.00;;;;;;;35.86;23.87;99936.66;105023;1277;59773;-73
2022/06/23 10:53:12;;;;;;;10.80;3.30;;;;;;;35.81;24.52;99938.89;105911;1277;62366;-74
2022/06/23 10:56:17;;;;;;;11.80;3.30;;;;;;;35.77;24.89;99939.66;105824;1277;74931;-73
2022/06/23 10:59:21;;;;;;;9.80;3.90;;;;;;;35.82;24.78;99942.89;104691;1277;69767;-73
2022/06/23 11:02:57;;;;;;;8.40;3.30;;;;;;;35.65;24.56;99944.55;104608;1277;74282;-73
2022/06/23 11:06:24;;;;;;;9.40;3.70;;;;;;;35.42;24.95;99944.26;105013;1277;59932;-73
2022/06/23 11:09:34;;;;;;;8.70;3.60;;;;;;;35.02;25.43;99944.81;104347;1281;60115;-75
2022/06/23 11:12:52;;;;;;;8.70;3.70;;;;;;;34.20;26.61;99943.58;104129;1282;73020;-72
2022/06/23 11:16:29;;;;;;;10.10;3.20;;;;;;;33.39;27.44;99949.27;104325;1279;65735;-71
2022/06/23 11:19:35;;;;;;;8.30;3.80;;;;;;;32.47;28.36;99949.05;104752;1280;73842;-72
2022/06/23 11:22:42;;;;;;;9.00;3.60;;;;;;;32.05;29.93;99944.71;104347;1279;59839;-69
2022/06/23 11:26:06;;;;;;;10.40;3.60;;;;;;;31.62;30.15;99944.38;104564;1281;61012;-70
2022/06/23 11:28:59;;;;;;;8.50;2.90;;;;;;;31.19;31.24;99945.50;104215;1279;74712;-71
2022/06/23 11:32:33;;;;;;;9.60;3.10;;;;;;;30.96;32.33;99949.62;104394;1279;68409;-71
2022/06/23 11:35:33;;;;;;;8.50;3.40;;;;;;;30.63;32.79;99946.66;104360;1279;72733;-69
2022/06/23 11:38:54;;;;;;;9.10;3.20;;;;;;;30.13;33.60;99950.70;104344;1281;59696;-69
2022/06/23 11:42:08;;;;;;;11.10;3.50;;;;;;;29.47;34.55;99945.90;104201;1279;60428;-69
2022/06/23 11:45:12;;;;;;;9.30;3.50;;;;;;;28.65;35.26;99959.41;104160;1277;72777;-70
2022/06/23 11:48:42;;;;;;;9.70;3.60;;;;;;;27.93;36.85;99964.83;104707;1273;66756;-71
2022/06/23 11:51:53;;;;;;;10.60;3.70;;;;;;;27.22;38.19;99970.69;104759;1274;74319;-72
2022/06/23 11:55:06;;;;;;;8.70;3.30;;;;;;;26.61;39.34;99974.14;105088;1273;59773;-70
2022/06/23 11:58:33;;;;;;;9.00;3.50;;;;;;;26.18;39.73;99978.82;105092;1273;59539;-70
2022/06/23 12:01:24;;;;;;;9.20;3.30;;;;;;;25.84;40.71;99977.91;104940;1274;74296;-69
2022/06/23 12:05:09;;;;;;;8.20;3.30;;;;;;;25.58;40.74;99981.42;104965;1274;68344;-70
2022/06/23 12:08:24;;;;;;;9.00;3.10;;;;;;;25.22;41.81;99980.18;104232;1282;72380;-69
2022/06/23 12:11:12;;;;;;;9.00;3.50;;;;;;;25.19;42.27;99978.65;103990;1282;59713;-70
2022/06/23 12:14:03;;;;;;;9.00;3.20;;;;;;;25.09;41.81;99977.62;103984;1282;61007;-68
2022/06/23 12:17:12;;;;;;;9.90;4.10;;;;;;;24.93;42.24;99987.11;104240;1282;74076;-70
2022/06/23 12:20:40;;;;;;;10.30;4.30;;;;;;;24.72;43.23;99987.44;104054;1282;66524;-72
2022/06/23 12:23:52;;;;;;;9.10;3.70;;;;;;;24.55;43.65;99985.03;104362;1282;72945;-71
2022/06/23 12:27:16;;;;;;;8.40;3.30;;;;;;;24.50;45.68;99984.86;103918;1282;60434;-71
2022/06/23 12:30:14;;;;;;;9.40;3.90;;;;;;;24.56;46.05;99988.95;104289;1281;59783;-70
2022/06/23 12:33:24;;;;;;;8.40;3.70;;;;;;;24.43;46.16;99992.75;104345;1282;72277;-71
2022/06/23 12:36:40;;;;;;;7.70;3.40;;;;;;;24.35;46.63;99990.55;104034;1282;68981;-70
2022/06/23 12:39:44;;;;;;;9.20;3.70;;;;;;;24.25;47.01;99995.52;104245;1282;74030;-69
2022/06/23 12:42:40;;;;;;;9.30;3.70;;;;;;;24.20;47.03;99989.11;104233;1282;59810;-69
2022/06/23 12:45:53;;;;;;;10.70;4.00;;;;;;;24.23;47.48;99998.76;105052;1274;59741;-68
2022/06/23 12:49:02;;;;;;;8.20;3.30;;;;;;;24.15;47.14;99996.17;105103;1273;74590;-71
2022/06/23 12:52:01;;;;;;;9.20;4.10;;;;;;;24.05;47.37;99996.68;104991;1273;66989;-71
2022/06/23 12:55:07;;;;;;;8.50;4.00;;;;;;;23.93;47.68;99995.30;104790;1273;72686;-70
2022/06/23 12:58:12;;;;;;;9.20;3.90;;;;;;;23.84;48.73;99991.72;105036;1273;59691;-72
2022/06/23 13:01:06;;;;;;;13.60;4.60;;;;;;;23.75;48.12;99996.11;104940;1273;61455;-72
2022/06/23 13:04:04;;;;;;;9.20;3.90;;;;;;;23.61;48.15;99994.74;104815;1274;72472;-72
2022/06/23 13:07:26;;;;;;;8.20;3.60;;;;;;;23.47;48.90;100001.83;104692;1274;67863;-70
2022/06/23 13:10:50;;;;;;;11.90;3.40;;;;;;;23.40;49.61;99999.76;104193;1282;74561;-70
2022/06/23 13:13:55;;;;;;;7.50;3.50;;;;;;;23.35;50.10;99997.70;104097;1282;59707;-71
2022/06/23 13:16:55;;;;;;;9.50;3.90;;;;;;;23.32;50.29;99989.39;103987;1282;60594;-71
2022/06/23 13:19:54;;;;;;;8.00;3.70;;;;;;;23.31;50.07;99987.16;104072;1282;73947;-72
2022/06/23 13:23:05;;;;;;;8.90;3.80;;;;;;;23.28;49.53;99984.81;104427;1282;67830;-70
2022/06/23 13:26:12;;;;;;;7.90;3.20;;;;;;;23.31;49.94;99986.87;103837;1282;73217;-73
2022/06/23 13:29:22;;;;;;;7.80;3.10;;;;;;;23.33;50.11;99980.78;104083;1282;59913;-72
2022/06/23 13:32:30;;;;;;;7.70;3.50;;;;;;;23.17;50.84;99977.34;104052;1284;60860;-71
2022/06/23 13:35:27;;;;;;;7.70;3.30;;;;;;;23.05;51.45;99976.95;103843;1282;74752;-72
2022/06/23 13:38:19;;;;;;;9.10;3.50;;;;;;;22.98;51.71;99976.17;103894;1282;67177;-70
2022/06/23 13:41:18;;;;;;;8.60;3.30;;;;;;;22.98;51.69;99981.55;104277;1282;73414;-71
2022/06/23 13:44:24;;;;;;;9.60;3.70;;;;;;;23.01;51.08;99976.06;104265;1282;59609;-70
2022/06/23 13:47:39;;;;;;;7.20;2.90;;;;;;;23.02;51.11;99970.85;104471;1274;60971;-70
2022/06/23 13:51:07;;;;;;;10.10;3.80;;;;;;;23.07;50.96;99972.70;104623;1274;74795;-70
2022/06/23 13:54:26;;;;;;;7.80;3.20;;;;;;;23.10;50.95;99968.33;105124;1274;68132;-71
2022/06/23 13:57:33;;;;;;;8.00;3.20;;;;;;;23.06;50.30;99964.60;104856;1274;73201;-72
2022/06/23 14:00:48;;;;;;;9.50;3.30;;;;;;;22.98;50.48;99962.40;104904;1274;59768;-71
2022/06/23 14:04:05;;;;;;;7.60;3.40;;;;;;;22.94;50.44;99961.70;104961;1274;61417;-72
2022/06/23 14:07:19;;;;;;;7.50;2.90;;;;;;;22.92;50.45;99959.08;105002;1274;73773;-72
2022/06/23 14:10:27;;;;;;;9.10;3.40;;;;;;;22.98;50.40;99958.55;104933;1273;67831;-71
2022/06/23 14:14:00;;;;;;;9.50;2.90;;;;;;;22.97;49.78;99958.30;104949;1274;73550;-72
2022/06/23 14:16:54;;;;;;;8.00;2.70;;;;;;;22.90;49.47;99957.23;105106;1281;59773;-73
2022/06/23 14:20:01;;;;;;;7.40;3.00;;;;;;;22.90;49.61;99955.55;105317;1281;59584;-72
2022/06/23 14:23:07;;;;;;;9.90;2.80;;;;;;;22.90;49.70;99955.56;106400;1280;73473;-72
2022/06/23 14:26:11;;;;;;;8.90;3.00;;;;;;;22.88;49.94;99954.60;105623;1281;68383;-71
2022/06/23 14:29:32;;;;;;;6.60;2.70;;;;;;;22.82;49.72;99953.41;105516;1281;73562;-71
2022/06/23 14:32:49;;;;;;;7.80;2.70;;;;;;;22.83;49.90;99951.36;104671;1281;59887;-72